Judenburg, Austria
Current Conditions -  °F | °C
As of 8:50 AM on Friday 24 Oct 2014 (Local Time) from LOXZ Reporting Station
Scattered Clouds Scattered Clouds  
Wind Chill: 43°   Ceiling: Unl
Heat Index: 43°   Visibility: 25mi
Dew Point: 37°   Wind: 3mph
Humidity: 81%   Direction: NA
Pressure: 30.06"   Gusts: NA
Location:  47.17°N, 14.66°E
Report Text: LOXZ 240650Z VRB03KT 40KM FEW040SC SCT055SC 06/03 Q1018 NOSIGRMK BKN
Loading
Personal Weather Stations






























Interactive Weather Map
Tropical Storm Tracking
New forecast layout! Learn more

10-Day Weather Forecast

Advertisements
Track Severe Weather on mobile